createdAt,value
2023-07-28T00:04:44.824Z,1003.431
2023-07-28T00:09:44.791Z,1003.341
2023-07-28T00:14:44.769Z,1003.395
2023-07-28T00:19:44.802Z,1003.38
2023-07-28T00:24:45.069Z,1003.257
2023-07-28T00:29:44.803Z,1003.314
2023-07-28T00:34:44.777Z,1003.197
2023-07-28T00:39:44.798Z,1003.255
2023-07-28T00:44:44.805Z,1003.19
2023-07-28T00:49:45.174Z,1003.196
2023-07-28T00:54:44.884Z,1003.127
2023-07-28T00:59:45.103Z,1003.181
2023-07-28T01:04:45.452Z,1003.208
2023-07-28T01:09:48.187Z,1003.235
2023-07-28T01:14:44.918Z,1003.207
2023-07-28T01:19:44.942Z,1003.206
2023-07-28T01:24:47.403Z,1003.254
2023-07-28T01:29:44.949Z,1003.254
2023-07-28T01:34:44.900Z,1003.265
2023-07-28T01:39:44.975Z,1003.299
2023-07-28T01:44:44.900Z,1003.365
2023-07-28T01:49:44.917Z,1003.4
2023-07-28T01:54:44.963Z,1003.28
2023-07-28T01:59:45.040Z,1003.398
2023-07-28T02:04:44.869Z,1003.422
2023-07-28T02:09:44.889Z,1003.509
2023-07-28T02:14:44.880Z,1003.537
2023-07-28T02:19:44.883Z,1003.564
2023-07-28T02:24:44.938Z,1003.653
2023-07-28T02:29:45.141Z,1003.601
2023-07-28T02:34:44.953Z,1003.599
2023-07-28T02:39:44.856Z,1003.521
2023-07-28T02:44:45.021Z,1003.473
2023-07-28T02:49:45.311Z,1003.544
2023-07-28T02:54:44.940Z,1003.605
2023-07-28T02:59:44.985Z,1003.572
2023-07-28T03:04:44.925Z,1003.609
2023-07-28T03:09:44.913Z,1003.621
2023-07-28T03:14:44.956Z,1003.65
2023-07-28T03:19:44.998Z,1003.62
2023-07-28T03:24:47.170Z,1003.631
2023-07-28T03:29:45.024Z,1003.691
2023-07-28T03:34:45.080Z,1003.769
2023-07-28T03:39:45.233Z,1003.778
2023-07-28T03:44:45.071Z,1003.808
2023-07-28T03:49:44.954Z,1003.861
2023-07-28T03:54:45.046Z,1003.898
2023-07-28T03:59:44.964Z,1003.955
2023-07-28T04:04:45.416Z,1003.956
2023-07-28T04:09:44.986Z,1003.974
2023-07-28T04:14:45.577Z,1003.943
2023-07-28T04:19:44.978Z,1003.964
2023-07-28T04:24:45.029Z,1004.011
2023-07-28T04:29:45.043Z,1004.065
2023-07-28T04:34:45.150Z,1004.092
2023-07-28T04:39:45.102Z,1004.102
2023-07-28T04:44:46.732Z,1004.164
2023-07-28T04:49:45.052Z,1004.233
2023-07-28T04:54:45.096Z,1004.345
2023-07-28T04:59:45.082Z,1004.323
2023-07-28T05:04:45.085Z,1004.356
2023-07-28T05:09:45.985Z,1004.346
2023-07-28T05:14:45.100Z,1004.442
2023-07-28T05:19:45.533Z,1004.397
2023-07-28T05:24:45.261Z,1004.358
2023-07-28T05:29:45.229Z,1004.396
2023-07-28T05:34:46.505Z,1004.397
2023-07-28T05:39:45.299Z,1004.361
2023-07-28T05:44:45.121Z,1004.384
2023-07-28T05:49:45.108Z,1004.412
2023-07-28T05:54:45.140Z,1004.437
2023-07-28T05:59:45.172Z,1004.479
2023-07-28T06:04:45.113Z,1004.541
2023-07-28T06:09:45.202Z,1004.543
2023-07-28T06:14:45.173Z,1004.644
2023-07-28T06:19:45.161Z,1004.667
2023-07-28T06:24:45.136Z,1004.737
2023-07-28T06:29:45.122Z,1004.725
2023-07-28T06:34:45.199Z,1004.776
2023-07-28T06:39:45.931Z,1004.823
2023-07-28T06:44:45.154Z,1004.912
2023-07-28T06:49:45.224Z,1005.017
2023-07-28T06:54:45.137Z,1005.094
2023-07-28T06:59:45.182Z,1005.164
2023-07-28T07:04:45.174Z,1005.214
2023-07-28T07:09:46.218Z,1005.333
2023-07-28T07:14:45.469Z,1005.398
2023-07-28T07:19:45.165Z,1005.453
2023-07-28T07:24:45.212Z,1005.488
2023-07-28T07:29:45.623Z,1005.495
2023-07-28T07:34:45.189Z,1005.565
2023-07-28T07:39:46.078Z,1005.6
2023-07-28T07:44:45.294Z,1005.618
2023-07-28T07:49:45.356Z,1005.648
2023-07-28T07:54:45.308Z,1005.674
2023-07-28T07:59:45.236Z,1005.765
2023-07-28T08:04:45.374Z,1005.78
2023-07-28T08:09:45.303Z,1005.845
2023-07-28T08:14:46.978Z,1005.832
2023-07-28T08:19:45.253Z,1005.832
2023-07-28T08:24:45.255Z,1005.889
2023-07-28T08:29:45.295Z,1005.93
2023-07-28T08:34:45.368Z,1005.947
2023-07-28T08:39:45.218Z,1005.943
2023-07-28T08:44:46.301Z,1006.061
2023-07-28T08:49:45.260Z,1006.073
2023-07-28T08:54:45.287Z,1006.061
2023-07-28T08:59:48.473Z,1006.164
2023-07-28T09:04:45.315Z,1006.159
2023-07-28T09:09:47.298Z,1006.134
2023-07-28T09:14:46.127Z,1006.177
2023-07-28T09:19:57.692Z,1006.26
2023-07-28T09:24:45.252Z,1006.178
2023-07-28T09:29:45.378Z,1006.188
2023-07-28T09:34:45.331Z,1006.184
2023-07-28T09:39:45.503Z,1006.231
2023-07-28T09:44:45.340Z,1006.273
2023-07-28T09:49:46.332Z,1006.354
2023-07-28T09:54:46.203Z,1006.283
2023-07-28T09:59:45.906Z,1006.295
2023-07-28T10:04:45.501Z,1006.394
2023-07-28T10:09:45.753Z,1006.444
2023-07-28T10:14:45.320Z,1006.42
2023-07-28T10:19:45.375Z,1006.472
2023-07-28T10:25:01.067Z,1006.517
2023-07-28T10:29:56.229Z,1006.468
2023-07-28T10:34:45.954Z,1006.494
2023-07-28T10:39:46.534Z,1006.432
2023-07-28T10:44:45.465Z,1006.48
2023-07-28T10:49:45.578Z,1006.375
2023-07-28T10:54:47.220Z,1006.353
2023-07-28T10:59:45.434Z,1006.305
2023-07-28T11:04:50.814Z,1006.352
2023-07-28T11:09:45.387Z,1006.317
2023-07-28T11:14:45.410Z,1006.317
2023-07-28T11:19:45.412Z,1006.319
2023-07-28T11:24:46.172Z,1006.362
2023-07-28T11:29:45.453Z,1006.329
2023-07-28T11:34:46.103Z,1006.325
2023-07-28T11:39:45.596Z,1006.334
2023-07-28T11:44:45.895Z,1006.366
2023-07-28T11:49:51.751Z,1006.325
2023-07-28T11:54:45.454Z,1006.298
2023-07-28T11:59:45.487Z,1006.3
2023-07-28T12:16:06.024Z,1006.235
2023-07-28T12:19:59.107Z,1006.316
2023-07-28T12:24:45.534Z,1006.242
2023-07-28T12:34:51.292Z,1006.262
2023-07-28T12:49:52.211Z,1006.233
2023-07-28T12:54:45.667Z,1006.359
2023-07-28T13:04:45.493Z,1006.336
2023-07-28T13:09:46.660Z,1006.273
2023-07-28T13:14:45.533Z,1006.294
2023-07-28T13:19:45.645Z,1006.345
2023-07-28T13:24:45.538Z,1006.391
2023-07-28T13:29:45.560Z,1006.33
2023-07-28T13:34:45.962Z,1006.36
2023-07-28T13:39:46.136Z,1006.366
2023-07-28T13:44:57.343Z,1006.31
2023-07-28T13:59:46.082Z,1006.24
2023-07-28T14:04:45.597Z,1006.158
2023-07-28T14:09:45.574Z,1006.235
2023-07-28T14:14:45.600Z,1006.224
2023-07-28T14:19:45.802Z,1006.162
2023-07-28T14:24:45.695Z,1006.116
2023-07-28T14:29:45.654Z,1006.151
2023-07-28T14:34:45.611Z,1006.127
2023-07-28T14:39:45.657Z,1006.211
2023-07-28T14:44:45.695Z,1006.249
2023-07-28T14:49:45.649Z,1006.211
2023-07-28T14:54:45.680Z,1006.281
2023-07-28T14:59:45.662Z,1006.235
2023-07-28T15:04:47.220Z,1006.177
2023-07-28T15:09:45.686Z,1006.165
2023-07-28T15:14:45.692Z,1006.205
2023-07-28T15:19:45.664Z,1006.112
2023-07-28T15:24:45.986Z,1006.076
2023-07-28T15:29:45.698Z,1006.065
2023-07-28T15:34:45.703Z,1006.025
2023-07-28T15:39:45.671Z,1005.98
2023-07-28T15:44:45.694Z,1005.932
2023-07-28T15:49:45.754Z,1005.939
2023-07-28T15:54:45.679Z,1005.963
2023-07-28T15:59:46.101Z,1006.008
2023-07-28T16:04:45.949Z,1006.04
2023-07-28T16:09:45.821Z,1006.074
2023-07-28T16:14:46.120Z,1006.052
2023-07-28T16:19:45.912Z,1006.05
2023-07-28T16:24:47.398Z,1006.067
2023-07-28T16:29:46.506Z,1005.993
2023-07-28T16:34:45.841Z,1006.028
2023-07-28T16:39:45.775Z,1006.024
2023-07-28T16:44:45.729Z,1006.004
2023-07-28T16:49:45.855Z,1005.929
2023-07-28T16:54:45.822Z,1005.862
2023-07-28T16:59:45.926Z,1005.906
2023-07-28T17:04:45.828Z,1005.827
2023-07-28T17:09:47.056Z,1005.958
2023-07-28T17:14:45.776Z,1005.9
2023-07-28T17:19:45.840Z,1006.003
2023-07-28T17:24:46.231Z,1006.11
2023-07-28T17:29:45.828Z,1006.112
2023-07-28T17:34:45.846Z,1006.102
2023-07-28T17:39:46.471Z,1006.124
2023-07-28T17:44:45.866Z,1006.081
2023-07-28T17:49:45.885Z,1006.105
2023-07-28T17:54:46.412Z,1006.149
2023-07-28T17:59:48.094Z,1006.09
2023-07-28T18:04:45.908Z,1006.159
2023-07-28T18:09:46.886Z,1006.152
2023-07-28T18:14:45.856Z,1006.141
2023-07-28T18:19:45.903Z,1006.188
2023-07-28T18:24:45.923Z,1006.221
2023-07-28T18:29:45.875Z,1006.248
2023-07-28T18:34:46.196Z,1006.353
2023-07-28T18:39:45.880Z,1006.331
2023-07-28T18:44:45.881Z,1006.358
2023-07-28T18:49:45.942Z,1006.465
2023-07-28T18:54:45.905Z,1006.482
2023-07-28T18:59:45.981Z,1006.575
2023-07-28T19:04:46.516Z,1006.557
2023-07-28T19:09:45.969Z,1006.492
2023-07-28T19:14:46.134Z,1006.469
2023-07-28T19:19:45.963Z,1006.499
2023-07-28T19:24:46.852Z,1006.501
2023-07-28T19:29:46.209Z,1006.573
2023-07-28T19:34:45.955Z,1006.655
2023-07-28T19:39:46.045Z,1006.64
2023-07-28T19:44:46.016Z,1006.571
2023-07-28T19:49:52.519Z,1006.808
2023-07-28T19:54:45.998Z,1006.91
2023-07-28T19:59:45.962Z,1006.94
2023-07-28T20:04:45.983Z,1007.036
2023-07-28T20:09:47.331Z,1007.066
2023-07-28T20:14:45.974Z,1007.13
2023-07-28T20:19:45.980Z,1007.128
2023-07-28T20:24:46.626Z,1007.077
2023-07-28T20:29:46.004Z,1007.103
2023-07-28T20:34:46.955Z,1007.065
2023-07-28T20:39:46.030Z,1007.021
2023-07-28T20:44:46.010Z,1007.101
2023-07-28T20:49:45.987Z,1007.072
2023-07-28T20:54:49.313Z,1007.095
2023-07-28T20:59:46.094Z,1007.109
2023-07-28T21:04:46.026Z,1007.146
2023-07-28T21:09:45.988Z,1007.126
2023-07-28T21:14:46.008Z,1007.087
2023-07-28T21:19:47.835Z,1007.078
2023-07-28T21:24:46.041Z,1006.961
2023-07-28T21:29:47.284Z,1006.947
2023-07-28T21:34:46.128Z,1006.917
2023-07-28T21:39:46.241Z,1006.812
2023-07-28T21:44:46.040Z,1006.827
2023-07-28T21:49:46.117Z,1006.832
2023-07-28T21:54:46.895Z,1006.796
2023-07-28T21:59:46.700Z,1006.807
2023-07-28T22:04:46.098Z,1006.787
2023-07-28T22:09:46.282Z,1006.795
2023-07-28T22:14:46.530Z,1006.795
2023-07-28T22:19:46.196Z,1006.841
2023-07-28T22:24:46.691Z,1006.725
2023-07-28T22:29:46.156Z,1006.738
2023-07-28T22:34:46.340Z,1006.716
2023-07-28T22:39:46.101Z,1006.676
2023-07-28T22:44:46.631Z,1006.639
2023-07-28T22:49:46.165Z,1006.618
2023-07-28T22:54:46.405Z,1006.561
2023-07-28T22:59:46.207Z,1006.559
2023-07-28T23:04:46.227Z,1006.498
2023-07-28T23:09:49.147Z,1006.492
2023-07-28T23:14:46.156Z,1006.422
2023-07-28T23:19:46.168Z,1006.459
2023-07-28T23:24:46.249Z,1006.464
2023-07-28T23:29:46.851Z,1006.494
2023-07-28T23:34:46.156Z,1006.471
2023-07-28T23:39:46.214Z,1006.454
2023-07-28T23:44:46.233Z,1006.398
2023-07-28T23:49:46.516Z,1006.361
2023-07-28T23:54:46.337Z,1006.38
2023-07-28T23:59:47.766Z,1006.331
